Time;durP1;ratioP1;P1;durP2;ratioP2;P2;SDS_P1;SDS_P2;PMS_P1;PMS_P2;Temp;Humidity;BMP_temperature;BMP_pressure;BME280_temperature;BME280_humidity;BME280_pressure;Samples;Min_cycle;Max_cycle;Signal;HPM_P1;HPM_P2
2022/12/23 00:02:13;;;;;;;;;;;6.20;99.90;;;;;;5081657;28;19932;-76
2022/12/23 00:04:38;;;;;;;;;;;6.20;99.90;;;;;;5086861;28;20288;-76
2022/12/23 00:07:04;;;;;;;;;;;6.20;99.90;;;;;;5071925;28;19920;-76
2022/12/23 00:09:29;;;;;;;;;;;6.20;99.90;;;;;;5060461;28;19920;-76
2022/12/23 00:17:24;;;;;;;;;;;6.20;99.90;;;;;;5084209;28;19924;-76
2022/12/23 00:19:49;;;;;;;;;;;6.20;99.90;;;;;;5103123;28;19927;-76
2022/12/23 00:22:15;;;;;;;;;;;6.20;99.90;;;;;;5088596;28;19920;-76
2022/12/23 00:24:40;;;;;;;;;;;6.20;99.90;;;;;;5087606;28;20569;-76
2022/12/23 00:27:06;;;;;;;;;;;6.20;99.90;;;;;;5071011;28;20351;-76
2022/12/23 00:29:31;;;;;;;;;;;6.20;99.90;;;;;;5070397;28;19923;-76
2022/12/23 00:31:57;;;;;;;;;;;6.20;99.90;;;;;;5087739;28;20049;-77
2022/12/23 00:34:22;;;;;;;;;;;6.20;99.90;;;;;;5071511;28;19927;-76
2022/12/23 00:36:48;;;;;;;;;;;6.20;99.90;;;;;;5071534;28;20551;-77
2022/12/23 00:44:42;;;;;;;;;;;6.20;99.90;;;;;;5086283;28;20027;-76
2022/12/23 00:49:40;;;;;;;;;;;6.20;99.90;;;;;;5060637;28;20026;-76
2022/12/23 00:49:53;;;;;;;;;;;6.20;99.90;;;;;;5091564;28;19934;-75
2022/12/23 00:52:19;;;;;;;;;;;6.20;99.90;;;;;;5085593;28;19924;-76
2022/12/23 00:54:44;;;;;;;;;;;6.20;99.90;;;;;;5065838;28;19938;-76
2022/12/23 00:57:10;;;;;;;;;;;6.20;99.90;;;;;;5069057;28;20091;-76
2022/12/23 00:59:36;;;;;;;;;;;6.20;99.90;;;;;;5050106;28;19928;-76
2022/12/23 01:07:30;;;;;;;;;;;6.20;99.90;;;;;;5076813;28;20004;-76
2022/12/23 01:09:56;;;;;;;;;;;6.20;99.90;;;;;;5047586;28;19968;-76
2022/12/23 01:12:21;;;;;;;;;;;6.20;99.90;;;;;;5067655;28;20601;-76
2022/12/23 01:14:47;;;;;;;;;;;6.20;99.90;;;;;;5050790;28;19924;-76
2022/12/23 01:17:13;;;;;;;;;;;6.20;99.90;;;;;;5084929;28;19924;-76
2022/12/23 01:19:38;;;;;;;;;;;6.20;99.90;;;;;;5066992;28;20007;-76
2022/12/23 01:22:04;;;;;;;;;;;6.20;99.90;;;;;;5064976;28;19927;-76
2022/12/23 01:24:30;;;;;;;;;;;6.20;99.90;;;;;;5052108;28;19997;-74
2022/12/23 01:26:56;;;;;;;;;;;6.20;99.90;;;;;;5067525;28;19924;-74
2022/12/23 01:29:21;;;;;;;;;;;6.20;99.90;;;;;;5050113;28;20459;-74
2022/12/23 01:31:47;;;;;;;;;;;6.20;99.90;;;;;;5066548;28;19924;-74
2022/12/23 01:34:12;;;;;;;;;;;6.20;99.90;;;;;;5067541;28;19942;-74
2022/12/23 01:36:38;;;;;;;;;;;6.20;99.90;;;;;;5047637;28;20238;-74
2022/12/23 01:39:04;;;;;;;;;;;6.20;99.90;;;;;;5045708;28;19970;-74
2022/12/23 01:44:34;;;;;;;;;;;6.20;99.90;;;;;;5084081;28;19920;-74
2022/12/23 01:46:59;;;;;;;;;;;6.20;99.90;;;;;;5077710;28;20131;-74
2022/12/23 01:49:25;;;;;;;;;;;6.20;99.90;;;;;;5079172;28;19924;-74
2022/12/23 01:51:50;;;;;;;;;;;6.20;99.90;;;;;;5083668;28;20026;-74
2022/12/23 01:54:16;;;;;;;;;;;6.20;99.90;;;;;;5048189;28;19925;-74
2022/12/23 01:56:42;;;;;;;;;;;6.30;99.90;;;;;;5066514;28;20367;-74
2022/12/23 01:59:10;;;;;;;;;;;6.30;99.90;;;;;;5073536;28;19978;-74
2022/12/23 02:04:22;;;;;;;;;;;6.30;99.90;;;;;;5090157;28;20003;-74
2022/12/23 02:09:34;;;;;;;;;;;6.20;99.90;;;;;;5106103;28;19920;-74
2022/12/23 02:11:59;;;;;;;;;;;6.20;99.90;;;;;;5088998;28;20378;-74
2022/12/23 02:17:21;;;;;;;;;;;6.20;99.90;;;;;;5106904;28;19920;-74
2022/12/23 02:19:50;;;;;;;;;;;6.20;99.90;;;;;;5090231;28;19935;-74
2022/12/23 02:22:24;;;;;;;;;;;6.20;99.90;;;;;;5092098;28;19920;-74
2022/12/23 02:25:10;;;;;;;;;;;6.20;99.90;;;;;;5090463;28;19942;-74
2022/12/23 02:27:56;;;;;;;;;;;6.20;99.90;;;;;;5106686;28;19930;-74
2022/12/23 02:30:22;;;;;;;;;;;6.20;99.90;;;;;;5107050;28;19919;-74
2022/12/23 02:32:50;;;;;;;;;;;6.20;99.90;;;;;;5090588;28;19920;-74
2022/12/23 02:35:19;;;;;;;;;;;6.20;99.90;;;;;;5107725;28;20353;-74
2022/12/23 02:37:54;;;;;;;;;;;6.10;99.90;;;;;;5103191;28;19931;-74
2022/12/23 02:40:34;;;;;;;;;;;6.10;99.90;;;;;;5089055;28;19976;-74
2022/12/23 02:43:14;;;;;;;;;;;6.10;99.90;;;;;;5090084;28;19920;-74
2022/12/23 02:46:03;;;;;;;;;;;6.10;99.90;;;;;;5085150;28;19933;-76
2022/12/23 02:48:47;;;;;;;;;;;6.10;99.90;;;;;;5076817;28;20404;-76
2022/12/23 02:51:14;;;;;;;;;;;6.10;99.90;;;;;;5090653;28;19924;-76
2022/12/23 02:53:48;;;;;;;;;;;6.00;99.90;;;;;;5088786;28;20550;-75
2022/12/23 02:56:14;;;;;;;;;;;6.00;99.90;;;;;;5108363;28;19924;-76
2022/12/23 02:58:46;;;;;;;;;;;5.90;99.90;;;;;;5106089;28;19927;-76
2022/12/23 03:01:14;;;;;;;;;;;5.90;99.90;;;;;;5101982;28;19924;-76
2022/12/23 03:03:40;;;;;;;;;;;5.90;99.90;;;;;;5090712;28;19923;-76
2022/12/23 03:06:14;;;;;;;;;;;5.90;99.90;;;;;;5090663;28;20065;-76
2022/12/23 03:08:41;;;;;;;;;;;5.80;99.90;;;;;;5090347;28;20050;-76
2022/12/23 03:11:14;;;;;;;;;;;5.80;99.90;;;;;;5106697;28;19982;-76
2022/12/23 03:13:58;;;;;;;;;;;5.80;99.90;;;;;;5107262;28;19924;-76
2022/12/23 03:16:30;;;;;;;;;;;5.80;99.90;;;;;;5102792;28;19919;-76
2022/12/23 03:19:05;;;;;;;;;;;5.80;99.90;;;;;;5089366;28;20027;-76
2022/12/23 03:21:37;;;;;;;;;;;5.80;99.90;;;;;;5088415;27;19932;-76
2022/12/23 03:24:16;;;;;;;;;;;5.80;99.90;;;;;;5104634;28;19973;-75
2022/12/23 03:26:41;;;;;;;;;;;5.80;99.90;;;;;;5104208;28;19924;-76
2022/12/23 03:29:13;;;;;;;;;;;5.80;99.90;;;;;;5106551;27;20010;-76
2022/12/23 03:31:40;;;;;;;;;;;5.80;99.90;;;;;;5100249;28;19920;-76
2022/12/23 03:34:09;;;;;;;;;;;5.90;99.90;;;;;;5090155;28;19920;-76
2022/12/23 03:36:40;;;;;;;;;;;5.90;99.90;;;;;;5084582;28;20429;-76
2022/12/23 03:39:09;;;;;;;;;;;5.80;99.90;;;;;;5088894;28;19924;-76
2022/12/23 03:41:37;;;;;;;;;;;5.80;99.90;;;;;;5106719;28;19920;-76
2022/12/23 03:44:06;;;;;;;;;;;5.80;99.90;;;;;;5089552;28;19928;-76
2022/12/23 03:46:35;;;;;;;;;;;5.80;99.90;;;;;;5089277;28;19920;-76
2022/12/23 03:49:04;;;;;;;;;;;5.80;99.90;;;;;;5085786;28;19998;-75
2022/12/23 03:51:33;;;;;;;;;;;5.80;99.90;;;;;;5085442;28;19923;-75
2022/12/23 03:54:01;;;;;;;;;;;5.80;99.90;;;;;;5087521;28;19935;-76
2022/12/23 03:56:29;;;;;;;;;;;5.70;99.90;;;;;;5089018;28;20414;-76
2022/12/23 03:59:00;;;;;;;;;;;5.70;99.90;;;;;;5086829;28;20406;-76
2022/12/23 04:01:26;;;;;;;;;;;5.70;99.90;;;;;;5106293;28;19988;-76
2022/12/23 04:03:51;;;;;;;;;;;5.60;99.90;;;;;;5089295;28;20014;-76
2022/12/23 04:06:18;;;;;;;;;;;5.60;99.90;;;;;;5089132;28;20422;-76
2022/12/23 04:08:45;;;;;;;;;;;5.60;99.90;;;;;;5089296;28;19931;-76
2022/12/23 04:11:11;;;;;;;;;;;5.60;99.90;;;;;;5083059;28;20287;-76
2022/12/23 04:13:37;;;;;;;;;;;5.60;99.90;;;;;;5088808;28;19927;-75
2022/12/23 04:16:03;;;;;;;;;;;5.60;99.90;;;;;;5088424;28;19920;-76
2022/12/23 04:18:28;;;;;;;;;;;5.50;99.90;;;;;;5088229;28;19924;-76
2022/12/23 04:20:54;;;;;;;;;;;5.50;99.90;;;;;;5084319;28;20006;-76
2022/12/23 04:23:19;;;;;;;;;;;5.50;99.90;;;;;;5090778;28;19930;-76
2022/12/23 04:25:45;;;;;;;;;;;5.50;99.90;;;;;;5089220;28;19920;-75
2022/12/23 04:28:10;;;;;;;;;;;5.40;99.90;;;;;;5066087;28;20400;-76
2022/12/23 04:30:36;;;;;;;;;;;5.40;99.90;;;;;;5088377;28;19920;-75
2022/12/23 04:33:02;;;;;;;;;;;5.40;99.90;;;;;;5087268;28;19919;-75
2022/12/23 04:35:28;;;;;;;;;;;5.30;99.90;;;;;;5089139;28;19923;-75
2022/12/23 04:37:54;;;;;;;;;;;5.30;99.90;;;;;;5089109;28;20537;-75
2022/12/23 04:40:19;;;;;;;;;;;5.30;99.90;;;;;;5088111;28;20026;-75
2022/12/23 04:42:45;;;;;;;;;;;5.30;99.90;;;;;;5088174;28;20294;-75
2022/12/23 04:45:10;;;;;;;;;;;5.30;99.90;;;;;;5085182;28;19924;-75
2022/12/23 04:47:36;;;;;;;;;;;5.30;99.90;;;;;;5083046;28;19920;-75
2022/12/23 04:50:02;;;;;;;;;;;5.40;99.90;;;;;;5067532;28;20047;-76
2022/12/23 04:52:28;;;;;;;;;;;5.40;99.90;;;;;;5096960;28;19930;-75
2022/12/23 04:54:53;;;;;;;;;;;5.40;99.90;;;;;;5084871;28;19924;-75
2022/12/23 04:57:19;;;;;;;;;;;5.40;99.90;;;;;;5086923;28;19924;-75
2022/12/23 04:59:44;;;;;;;;;;;5.40;99.90;;;;;;5058297;28;19968;-75
2022/12/23 05:02:10;;;;;;;;;;;5.40;99.90;;;;;;5079678;28;19920;-77
2022/12/23 05:04:38;;;;;;;;;;;5.30;99.90;;;;;;5069080;28;20311;-76
2022/12/23 05:07:04;;;;;;;;;;;5.40;99.90;;;;;;5062125;28;19925;-76
2022/12/23 05:09:29;;;;;;;;;;;5.40;99.90;;;;;;5050315;28;19930;-75
2022/12/23 05:11:55;;;;;;;;;;;5.30;99.90;;;;;;5045885;28;20307;-76
2022/12/23 05:14:20;;;;;;;;;;;5.30;99.90;;;;;;5083337;28;19951;-76
2022/12/23 05:16:46;;;;;;;;;;;5.30;99.90;;;;;;5082853;28;20257;-76
2022/12/23 05:19:11;;;;;;;;;;;5.30;99.90;;;;;;5062924;28;19955;-76
2022/12/23 05:21:37;;;;;;;;;;;5.30;99.90;;;;;;5058551;28;19955;-76
2022/12/23 05:24:03;;;;;;;;;;;5.30;99.90;;;;;;5066719;28;20338;-76
2022/12/23 05:26:28;;;;;;;;;;;5.30;99.90;;;;;;5047123;28;19921;-76
2022/12/23 05:28:54;;;;;;;;;;;5.30;99.90;;;;;;5052953;28;19973;-74
2022/12/23 05:31:19;;;;;;;;;;;5.30;99.90;;;;;;5070921;28;19924;-74
2022/12/23 05:33:45;;;;;;;;;;;5.30;99.90;;;;;;5070280;28;19920;-74
2022/12/23 05:36:11;;;;;;;;;;;5.30;99.90;;;;;;5080175;28;19926;-74
2022/12/23 05:38:37;;;;;;;;;;;5.30;99.90;;;;;;5038818;28;19928;-74
2022/12/23 05:41:02;;;;;;;;;;;5.20;99.90;;;;;;5067248;28;19931;-74
2022/12/23 05:43:28;;;;;;;;;;;5.20;99.90;;;;;;5092158;28;19920;-75
2022/12/23 05:45:53;;;;;;;;;;;5.20;99.90;;;;;;5092563;28;19975;-76
2022/12/23 05:48:19;;;;;;;;;;;5.20;99.90;;;;;;5073290;28;19932;-75
2022/12/23 05:50:47;;;;;;;;;;;5.20;99.90;;;;;;5087060;28;19966;-75
2022/12/23 05:53:13;;;;;;;;;;;5.20;99.90;;;;;;5070561;28;19927;-76
2022/12/23 05:55:39;;;;;;;;;;;5.20;99.90;;;;;;5070461;28;20294;-76
2022/12/23 05:58:04;;;;;;;;;;;5.20;99.90;;;;;;5067480;28;19930;-75
2022/12/23 06:00:30;;;;;;;;;;;5.20;99.90;;;;;;5065787;27;19928;-75
2022/12/23 06:02:55;;;;;;;;;;;5.20;99.90;;;;;;5074238;27;19931;-75
2022/12/23 06:05:21;;;;;;;;;;;5.10;99.90;;;;;;5079650;27;20512;-75
2022/12/23 06:07:47;;;;;;;;;;;5.10;99.90;;;;;;5095376;27;19923;-75
2022/12/23 06:10:12;;;;;;;;;;;5.10;99.90;;;;;;5092047;27;19923;-75
2022/12/23 06:12:38;;;;;;;;;;;5.10;99.90;;;;;;5090341;27;19920;-76
2022/12/23 06:15:04;;;;;;;;;;;5.10;99.90;;;;;;5093769;27;19974;-76
2022/12/23 06:17:30;;;;;;;;;;;5.10;99.90;;;;;;5073738;27;19950;-76
2022/12/23 06:19:55;;;;;;;;;;;5.10;99.90;;;;;;5093251;27;19927;-76
2022/12/23 06:22:22;;;;;;;;;;;5.10;99.90;;;;;;5070641;27;20332;-76
2022/12/23 06:24:48;;;;;;;;;;;5.10;99.90;;;;;;5084919;27;19949;-76
2022/12/23 06:27:14;;;;;;;;;;;5.20;99.90;;;;;;5108922;27;19927;-75
2022/12/23 06:29:39;;;;;;;;;;;5.20;99.90;;;;;;5103608;27;20340;-75
2022/12/23 06:32:05;;;;;;;;;;;5.20;99.90;;;;;;5108294;27;19972;-75
2022/12/23 06:34:31;;;;;;;;;;;5.20;99.90;;;;;;5093099;27;20371;-76
2022/12/23 06:36:56;;;;;;;;;;;5.20;99.90;;;;;;5090556;27;19934;-75
2022/12/23 06:39:22;;;;;;;;;;;5.20;99.90;;;;;;5073456;27;20368;-76
2022/12/23 06:41:47;;;;;;;;;;;5.20;99.90;;;;;;5092854;27;20542;-76
2022/12/23 06:44:13;;;;;;;;;;;5.20;99.90;;;;;;5093485;27;20033;-76
2022/12/23 06:46:39;;;;;;;;;;;5.20;99.90;;;;;;5093288;27;19977;-76
2022/12/23 06:49:04;;;;;;;;;;;5.20;99.90;;;;;;5107229;27;20014;-76
2022/12/23 06:51:30;;;;;;;;;;;5.20;99.90;;;;;;5091419;27;19927;-75
2022/12/23 06:53:57;;;;;;;;;;;5.20;99.90;;;;;;5072574;27;20440;-75
2022/12/23 06:56:23;;;;;;;;;;;5.20;99.90;;;;;;5102553;27;19942;-75
2022/12/23 06:58:48;;;;;;;;;;;5.20;99.90;;;;;;5068733;28;19927;-75
2022/12/23 07:01:14;;;;;;;;;;;5.20;99.90;;;;;;5071914;28;19930;-75
2022/12/23 07:03:39;;;;;;;;;;;5.20;99.90;;;;;;5085032;28;19932;-75
2022/12/23 07:06:05;;;;;;;;;;;5.20;99.90;;;;;;5056508;28;20004;-75
2022/12/23 07:08:31;;;;;;;;;;;5.20;99.90;;;;;;5086612;28;19946;-75
2022/12/23 07:10:57;;;;;;;;;;;5.20;99.90;;;;;;5088711;28;19924;-75
2022/12/23 07:13:23;;;;;;;;;;;5.20;99.90;;;;;;5090441;28;20129;-75
2022/12/23 07:15:48;;;;;;;;;;;5.20;99.90;;;;;;5073010;28;19942;-76
2022/12/23 07:18:14;;;;;;;;;;;5.20;99.90;;;;;;5068795;28;20323;-75
2022/12/23 07:20:39;;;;;;;;;;;5.30;99.90;;;;;;5088322;28;20026;-75
2022/12/23 07:23:05;;;;;;;;;;;5.30;99.90;;;;;;5073373;28;19924;-76
2022/12/23 07:25:31;;;;;;;;;;;5.30;99.90;;;;;;5089916;28;19920;-76
2022/12/23 07:27:56;;;;;;;;;;;5.30;99.90;;;;;;5089928;28;19974;-76
2022/12/23 07:30:22;;;;;;;;;;;5.30;99.90;;;;;;5071593;28;19931;-75
2022/12/23 07:32:48;;;;;;;;;;;5.30;99.90;;;;;;5089149;28;20120;-76
2022/12/23 07:35:14;;;;;;;;;;;5.30;99.90;;;;;;5082676;28;20053;-76
2022/12/23 07:37:39;;;;;;;;;;;5.30;99.90;;;;;;5101502;28;19967;-76
2022/12/23 07:40:06;;;;;;;;;;;5.30;99.90;;;;;;5071001;28;19935;-76
2022/12/23 07:42:31;;;;;;;;;;;5.30;99.90;;;;;;5069194;28;20359;-76
2022/12/23 07:44:57;;;;;;;;;;;5.30;99.90;;;;;;5083460;28;19924;-76
2022/12/23 07:47:22;;;;;;;;;;;5.30;99.90;;;;;;5086328;28;19920;-76
2022/12/23 07:49:48;;;;;;;;;;;5.30;99.90;;;;;;5058411;28;19976;-76
2022/12/23 07:52:13;;;;;;;;;;;5.30;99.90;;;;;;5062671;28;19943;-76
2022/12/23 07:54:39;;;;;;;;;;;5.30;99.90;;;;;;5069485;28;19920;-76
2022/12/23 07:57:05;;;;;;;;;;;5.30;99.90;;;;;;5071409;28;20329;-76
2022/12/23 07:59:30;;;;;;;;;;;5.30;99.90;;;;;;5067749;28;19951;-76
2022/12/23 08:01:56;;;;;;;;;;;5.40;99.90;;;;;;5101569;28;19980;-76
2022/12/23 08:04:21;;;;;;;;;;;5.40;99.90;;;;;;5083010;28;20020;-76
2022/12/23 08:06:47;;;;;;;;;;;5.40;99.90;;;;;;5087039;28;19930;-75
2022/12/23 08:09:13;;;;;;;;;;;5.40;99.90;;;;;;5085915;28;20388;-75
2022/12/23 08:11:38;;;;;;;;;;;5.40;99.90;;;;;;5070664;28;19930;-75
2022/12/23 08:14:04;;;;;;;;;;;5.40;99.90;;;;;;5104508;28;20053;-76
2022/12/23 08:16:29;;;;;;;;;;;5.40;99.90;;;;;;5070747;28;19932;-76
2022/12/23 08:18:55;;;;;;;;;;;5.40;99.90;;;;;;5100823;28;19927;-76
2022/12/23 08:21:21;;;;;;;;;;;5.50;99.90;;;;;;5105588;27;19931;-76
2022/12/23 08:23:47;;;;;;;;;;;5.50;99.90;;;;;;5087861;28;19986;-76
2022/12/23 08:26:14;;;;;;;;;;;5.50;99.90;;;;;;5103150;28;19924;-76
2022/12/23 08:28:40;;;;;;;;;;;5.50;99.90;;;;;;5089025;28;20486;-76
2022/12/23 08:31:11;;;;;;;;;;;5.50;99.90;;;;;;5086119;28;19949;-76
2022/12/23 08:33:37;;;;;;;;;;;5.50;99.90;;;;;;5087559;28;20344;-76
2022/12/23 08:36:04;;;;;;;;;;;5.60;99.90;;;;;;5071257;28;20333;-76
2022/12/23 08:38:30;;;;;;;;;;;5.60;99.90;;;;;;5087739;28;19924;-76
2022/12/23 08:40:55;;;;;;;;;;;5.60;99.90;;;;;;5087070;28;20166;-76
2022/12/23 08:43:21;;;;;;;;;;;5.60;99.90;;;;;;5070090;28;19946;-76
2022/12/23 08:45:47;;;;;;;;;;;5.70;99.90;;;;;;5087573;28;19923;-76
2022/12/23 08:48:13;;;;;;;;;;;5.70;99.90;;;;;;5087622;28;19926;-76
2022/12/23 08:50:39;;;;;;;;;;;5.70;99.90;;;;;;5084751;28;19919;-76
2022/12/23 08:53:05;;;;;;;;;;;5.80;99.90;;;;;;5086372;28;19948;-76
2022/12/23 08:55:36;;;;;;;;;;;5.80;99.90;;;;;;5083860;28;20023;-75
2022/12/23 08:58:01;;;;;;;;;;;5.80;99.90;;;;;;5100587;28;20069;-76
2022/12/23 09:00:27;;;;;;;;;;;5.90;99.90;;;;;;5048505;28;20696;-77
2022/12/23 09:02:52;;;;;;;;;;;5.90;99.90;;;;;;5067617;28;19920;-76
2022/12/23 09:05:18;;;;;;;;;;;5.90;99.90;;;;;;5067402;28;19967;-76
2022/12/23 09:07:43;;;;;;;;;;;5.90;99.90;;;;;;5067320;28;19924;-76
2022/12/23 09:10:09;;;;;;;;;;;5.90;99.90;;;;;;5050806;28;19986;-77
2022/12/23 09:12:34;;;;;;;;;;;5.90;99.90;;;;;;5065092;28;19954;-76
2022/12/23 09:15:00;;;;;;;;;;;5.90;99.90;;;;;;5068648;28;20384;-76
2022/12/23 09:17:26;;;;;;;;;;;5.90;99.90;;;;;;5070257;28;20044;-76
2022/12/23 09:19:52;;;;;;;;;;;5.90;99.90;;;;;;5067623;28;19939;-77
2022/12/23 09:22:18;;;;;;;;;;;6.00;99.90;;;;;;5071909;28;19920;-77
2022/12/23 09:24:43;;;;;;;;;;;6.00;99.90;;;;;;5070571;28;19927;-77
2022/12/23 09:27:09;;;;;;;;;;;6.00;99.90;;;;;;5071620;28;20287;-77
2022/12/23 09:29:34;;;;;;;;;;;6.10;99.90;;;;;;5071355;28;19920;-76
2022/12/23 09:32:00;;;;;;;;;;;6.10;99.90;;;;;;5054481;28;19927;-77
2022/12/23 09:34:25;;;;;;;;;;;6.20;99.90;;;;;;5071885;28;20052;-76
2022/12/23 09:36:51;;;;;;;;;;;6.20;99.90;;;;;;5045067;28;20412;-76
2022/12/23 09:39:17;;;;;;;;;;;6.20;99.90;;;;;;5070863;28;19932;-76
2022/12/23 09:41:48;;;;;;;;;;;6.30;99.90;;;;;;5062876;28;19920;-76
2022/12/23 09:44:23;;;;;;;;;;;6.20;99.90;;;;;;5088085;28;19924;-76
2022/12/23 09:47:01;;;;;;;;;;;6.30;99.90;;;;;;5071762;28;20299;-76
2022/12/23 09:49:27;;;;;;;;;;;6.30;99.90;;;;;;5070908;28;20383;-75
2022/12/23 09:51:56;;;;;;;;;;;6.30;99.90;;;;;;5055075;28;20042;-75
2022/12/23 09:54:24;;;;;;;;;;;6.30;99.90;;;;;;5069628;28;19924;-76
2022/12/23 09:56:58;;;;;;;;;;;6.30;99.90;;;;;;5087542;28;19920;-76
2022/12/23 09:59:42;;;;;;;;;;;6.40;99.90;;;;;;5097969;28;19988;-76
2022/12/23 10:02:14;;;;;;;;;;;6.40;99.90;;;;;;5088711;28;19924;-76
2022/12/23 10:04:58;;;;;;;;;;;6.40;99.90;;;;;;5100520;27;19920;-75
2022/12/23 10:07:27;;;;;;;;;;;6.40;99.90;;;;;;5104146;28;19946;-75
2022/12/23 10:09:54;;;;;;;;;;;6.40;99.90;;;;;;5090246;28;19931;-76
2022/12/23 10:12:33;;;;;;;;;;;6.40;99.90;;;;;;5101351;28;19970;-75
2022/12/23 10:15:00;;;;;;;;;;;6.50;99.90;;;;;;5079867;28;19924;-75
2022/12/23 10:17:28;;;;;;;;;;;6.50;99.90;;;;;;5107989;28;20668;-75
2022/12/23 10:19:57;;;;;;;;;;;6.60;99.90;;;;;;5107461;28;19928;-75
2022/12/23 10:22:31;;;;;;;;;;;6.60;99.90;;;;;;5109627;27;19923;-76
2022/12/23 10:24:57;;;;;;;;;;;6.60;99.90;;;;;;5090996;28;19923;-75
2022/12/23 10:27:31;;;;;;;;;;;6.70;99.90;;;;;;5089370;28;19923;-76
2022/12/23 10:30:16;;;;;;;;;;;6.70;99.90;;;;;;5090267;28;19924;-76
2022/12/23 10:33:01;;;;;;;;;;;6.80;99.90;;;;;;5102378;28;20337;-75
2022/12/23 10:35:26;;;;;;;;;;;6.80;99.90;;;;;;5087619;28;19971;-77
2022/12/23 10:37:52;;;;;;;;;;;6.80;99.90;;;;;;5089414;28;20710;-76
2022/12/23 10:40:20;;;;;;;;;;;6.80;99.90;;;;;;5089040;28;19923;-77
2022/12/23 10:42:54;;;;;;;;;;;6.80;99.90;;;;;;5089421;28;20320;-76
2022/12/23 10:45:33;;;;;;;;;;;6.80;99.90;;;;;;5107137;28;20404;-75
2022/12/23 10:47:58;;;;;;;;;;;6.80;99.90;;;;;;5086448;28;19920;-77
2022/12/23 10:50:33;;;;;;;;;;;6.80;99.90;;;;;;5106488;28;20303;-76
2022/12/23 10:53:01;;;;;;;;;;;6.90;99.90;;;;;;5101962;28;19927;-76
2022/12/23 10:55:31;;;;;;;;;;;6.90;99.90;;;;;;5103817;28;19923;-76
2022/12/23 10:58:00;;;;;;;;;;;6.90;99.90;;;;;;5100713;28;19927;-76
2022/12/23 11:00:26;;;;;;;;;;;6.90;99.90;;;;;;5102834;28;19928;-75
2022/12/23 11:03:15;;;;;;;;;;;6.90;99.90;;;;;;5087143;28;20508;-75
2022/12/23 11:05:41;;;;;;;;;;;6.90;99.90;;;;;;5087247;28;20383;-76
2022/12/23 11:08:07;;;;;;;;;;;6.90;99.90;;;;;;5088305;28;19927;-77
2022/12/23 11:10:33;;;;;;;;;;;6.90;99.90;;;;;;5086463;28;20429;-74
2022/12/23 11:12:59;;;;;;;;;;;6.90;99.90;;;;;;5099780;28;19928;-74
2022/12/23 11:15:27;;;;;;;;;;;6.90;99.90;;;;;;5085898;28;20401;-74
2022/12/23 11:18:11;;;;;;;;;;;6.90;99.90;;;;;;5102301;28;20005;-75
2022/12/23 11:20:37;;;;;;;;;;;6.90;99.90;;;;;;5082743;28;19924;-75
2022/12/23 11:23:04;;;;;;;;;;;6.90;99.90;;;;;;5086888;28;19926;-75
2022/12/23 11:25:37;;;;;;;;;;;7.00;99.90;;;;;;5105390;28;20379;-75
2022/12/23 11:28:09;;;;;;;;;;;7.00;99.90;;;;;;5106149;28;19920;-75
2022/12/23 11:30:46;;;;;;;;;;;7.00;99.90;;;;;;5079749;28;19924;-76
2022/12/23 11:33:19;;;;;;;;;;;6.90;99.90;;;;;;5089485;28;20294;-75
2022/12/23 11:35:45;;;;;;;;;;;6.90;99.90;;;;;;5088698;28;20103;-75
2022/12/23 11:38:12;;;;;;;;;;;6.90;99.90;;;;;;5104871;28;20352;-75
2022/12/23 11:40:38;;;;;;;;;;;6.90;99.90;;;;;;5105774;28;19945;-75
2022/12/23 11:43:06;;;;;;;;;;;6.90;99.90;;;;;;5085491;28;19928;-75
2022/12/23 11:45:36;;;;;;;;;;;6.90;99.90;;;;;;5106329;28;20383;-76
2022/12/23 11:48:05;;;;;;;;;;;6.90;99.90;;;;;;5102301;28;19920;-75
2022/12/23 11:50:33;;;;;;;;;;;6.90;99.90;;;;;;5067654;28;19924;-75
2022/12/23 11:53:10;;;;;;;;;;;6.90;99.90;;;;;;5106418;28;19923;-74
2022/12/23 11:55:38;;;;;;;;;;;6.90;99.90;;;;;;5089249;28;20294;-74
2022/12/23 11:58:04;;;;;;;;;;;6.90;99.90;;;;;;5088642;28;19931;-75
2022/12/23 12:00:37;;;;;;;;;;;7.00;99.90;;;;;;5088870;28;20295;-74
2022/12/23 12:03:04;;;;;;;;;;;7.00;99.90;;;;;;5084073;28;20335;-75
2022/12/23 12:05:30;;;;;;;;;;;7.00;99.90;;;;;;5105569;28;19920;-75
2022/12/23 12:08:00;;;;;;;;;;;7.00;99.90;;;;;;5087348;28;19924;-75
2022/12/23 12:10:31;;;;;;;;;;;7.00;99.90;;;;;;5088775;28;20012;-76
2022/12/23 12:13:00;;;;;;;;;;;7.00;99.90;;;;;;5100145;28;20340;-76
2022/12/23 12:15:25;;;;;;;;;;;7.00;99.90;;;;;;5099461;28;20347;-76
2022/12/23 12:17:51;;;;;;;;;;;7.00;99.90;;;;;;5105466;28;20021;-76
2022/12/23 12:20:46;;;;;;;;;;;7.00;99.90;;;;;;5086939;28;19924;-77
2022/12/23 12:23:16;;;;;;;;;;;7.00;99.90;;;;;;5086438;28;20000;-76
2022/12/23 12:25:45;;;;;;;;;;;7.00;99.90;;;;;;5098655;28;19927;-75
2022/12/23 12:28:17;;;;;;;;;;;7.00;99.90;;;;;;5103952;27;20379;-75
2022/12/23 12:30:48;;;;;;;;;;;7.00;99.90;;;;;;5073071;28;20466;-75
2022/12/23 12:33:26;;;;;;;;;;;7.00;99.90;;;;;;5084647;28;20608;-75
2022/12/23 12:35:56;;;;;;;;;;;7.00;99.90;;;;;;5082046;28;19924;-74
2022/12/23 12:38:26;;;;;;;;;;;7.00;99.90;;;;;;5080257;28;19926;-75
2022/12/23 12:41:01;;;;;;;;;;;7.00;99.90;;;;;;5076608;28;20398;-75
2022/12/23 12:43:30;;;;;;;;;;;7.00;99.90;;;;;;5098273;28;19931;-75
2022/12/23 12:45:58;;;;;;;;;;;7.10;99.90;;;;;;5084223;28;19932;-75
2022/12/23 12:48:27;;;;;;;;;;;7.10;99.90;;;;;;5080363;28;20330;-75
2022/12/23 12:50:52;;;;;;;;;;;7.10;99.90;;;;;;5087173;28;19923;-76
2022/12/23 12:53:20;;;;;;;;;;;7.10;99.90;;;;;;5084643;28;20276;-75
2022/12/23 12:55:58;;;;;;;;;;;7.10;99.90;;;;;;5083220;28;19990;-74
2022/12/23 12:58:24;;;;;;;;;;;7.10;99.90;;;;;;5078870;28;19955;-76
2022/12/23 13:00:52;;;;;;;;;;;7.00;99.90;;;;;;5099854;28;20463;-76
2022/12/23 13:03:32;;;;;;;;;;;7.00;99.90;;;;;;5100052;28;19931;-76
2022/12/23 13:06:04;;;;;;;;;;;7.00;99.90;;;;;;5099541;28;20015;-76
2022/12/23 13:08:48;;;;;;;;;;;7.00;99.90;;;;;;5082050;28;20291;-76
2022/12/23 13:11:26;;;;;;;;;;;7.00;99.90;;;;;;5107418;28;19923;-76
2022/12/23 13:14:01;;;;;;;;;;;6.90;99.90;;;;;;5090473;28;19923;-75
2022/12/23 13:16:39;;;;;;;;;;;6.90;99.90;;;;;;5107429;28;19934;-76
2022/12/23 13:19:10;;;;;;;;;;;6.90;99.90;;;;;;5107387;28;19935;-76
2022/12/23 13:21:36;;;;;;;;;;;6.80;99.90;;;;;;5092914;27;19935;-75
2022/12/23 13:24:18;;;;;;;;;;;6.80;99.90;;;;;;5086000;28;20386;-76
2022/12/23 13:26:44;;;;;;;;;;;6.80;99.90;;;;;;5106468;28;20163;-75
2022/12/23 13:29:16;;;;;;;;;;;6.80;99.90;;;;;;5085961;28;19943;-75
2022/12/23 13:31:52;;;;;;;;;;;6.80;99.90;;;;;;5087218;28;19920;-76
2022/12/23 13:34:36;;;;;;;;;;;6.80;99.90;;;;;;5083336;28;19924;-76
2022/12/23 13:37:02;;;;;;;;;;;6.80;99.90;;;;;;5108441;28;19920;-75
2022/12/23 13:39:39;;;;;;;;;;;6.80;99.90;;;;;;5106660;28;20373;-75
2022/12/23 13:42:08;;;;;;;;;;;6.80;99.90;;;;;;5091398;28;19923;-76
2022/12/23 13:44:34;;;;;;;;;;;6.70;99.90;;;;;;5103954;28;19923;-75
2022/12/23 13:47:05;;;;;;;;;;;6.70;99.90;;;;;;5102119;28;19946;-75
2022/12/23 13:49:40;;;;;;;;;;;6.70;99.90;;;;;;5089104;28;19924;-76
2022/12/23 13:52:10;;;;;;;;;;;6.70;99.90;;;;;;5106417;28;19919;-76
2022/12/23 13:54:50;;;;;;;;;;;6.70;99.90;;;;;;5090048;28;20442;-76
2022/12/23 13:57:34;;;;;;;;;;;6.70;99.90;;;;;;5104117;28;19972;-77
2022/12/23 14:00:01;;;;;;;;;;;6.70;99.90;;;;;;5104513;28;19928;-76
2022/12/23 14:02:36;;;;;;;;;;;6.70;99.90;;;;;;5110929;27;19927;-77
2022/12/23 14:05:03;;;;;;;;;;;6.70;99.90;;;;;;5090626;27;19966;-77
2022/12/23 14:07:30;;;;;;;;;;;6.70;99.90;;;;;;5094747;27;19927;-77
2022/12/23 14:09:57;;;;;;;;;;;6.70;99.90;;;;;;5094129;27;19941;-76
2022/12/23 14:12:28;;;;;;;;;;;6.60;99.90;;;;;;5095261;27;19920;-76
2022/12/23 14:15:13;;;;;;;;;;;6.60;99.90;;;;;;5089167;27;19925;-77
2022/12/23 14:18:02;;;;;;;;;;;6.60;99.90;;;;;;5074856;27;19929;-77
2022/12/23 14:20:49;;;;;;;;;;;6.60;99.90;;;;;;5088048;27;19967;-77
2022/12/23 14:23:33;;;;;;;;;;;6.50;99.90;;;;;;5108209;27;19970;-76
2022/12/23 14:26:08;;;;;;;;;;;6.50;99.90;;;;;;5108585;27;19930;-77
2022/12/23 14:28:52;;;;;;;;;;;6.40;99.90;;;;;;5093386;27;19920;-78
2022/12/23 14:31:27;;;;;;;;;;;6.40;99.90;;;;;;5106863;27;20482;-76
2022/12/23 14:33:52;;;;;;;;;;;6.40;99.90;;;;;;5093942;27;19923;-77
2022/12/23 14:36:22;;;;;;;;;;;6.40;99.90;;;;;;5106554;27;20360;-76
2022/12/23 14:39:07;;;;;;;;;;;6.30;99.90;;;;;;5093187;27;19929;-77
2022/12/23 14:41:48;;;;;;;;;;;6.30;99.90;;;;;;5111007;27;19920;-77
2022/12/23 14:44:18;;;;;;;;;;;6.30;99.90;;;;;;5120752;27;19923;-76
2022/12/23 14:46:44;;;;;;;;;;;6.30;99.90;;;;;;5110783;27;20310;-76
2022/12/23 14:49:31;;;;;;;;;;;6.30;99.90;;;;;;5093421;27;19924;-76
2022/12/23 14:52:17;;;;;;;;;;;6.30;99.90;;;;;;5108145;27;19946;-76
2022/12/23 14:54:42;;;;;;;;;;;6.30;99.90;;;;;;5116027;27;19935;-76
2022/12/23 14:57:15;;;;;;;;;;;6.30;99.90;;;;;;5091186;27;19919;-77
2022/12/23 15:00:01;;;;;;;;;;;6.30;99.90;;;;;;5091031;27;19927;-76
2022/12/23 15:02:32;;;;;;;;;;;6.30;99.90;;;;;;5092356;27;19927;-76
2022/12/23 15:04:58;;;;;;;;;;;6.30;99.90;;;;;;5108685;27;20370;-76
2022/12/23 15:07:26;;;;;;;;;;;6.30;99.90;;;;;;5092946;27;20064;-76
2022/12/23 15:09:59;;;;;;;;;;;6.30;99.90;;;;;;5091122;27;20006;-76